createdAt,value
2023-09-04T00:02:26.291Z,11.22
2023-09-04T00:07:31.070Z,11.13
2023-09-04T00:12:37.313Z,11.10
2023-09-04T00:17:40.589Z,10.97
2023-09-04T00:22:45.205Z,10.93
2023-09-04T00:27:48.368Z,10.87
2023-09-04T00:32:51.618Z,10.88
2023-09-04T00:37:56.204Z,10.85
2023-09-04T00:42:59.340Z,10.80
2023-09-04T00:48:02.846Z,10.76
2023-09-04T00:53:09.048Z,10.67
2023-09-04T00:58:12.267Z,10.64
2023-09-04T01:03:15.432Z,10.60
2023-09-04T01:08:19.978Z,10.57
2023-09-04T01:13:25.545Z,10.56
2023-09-04T01:18:29.766Z,10.45
2023-09-04T01:23:35.313Z,10.46
2023-09-04T01:28:42.236Z,10.37
2023-09-04T01:33:49.370Z,10.38
2023-09-04T01:38:54.438Z,10.36
2023-09-04T01:43:57.766Z,10.28
2023-09-04T01:49:00.974Z,10.25
2023-09-04T01:54:06.073Z,10.24
2023-09-04T01:59:09.629Z,10.13
2023-09-04T02:04:12.783Z,10.12
2023-09-04T02:09:17.295Z,10.08
2023-09-04T02:14:20.994Z,10.09
2023-09-04T02:19:24.099Z,10.04
2023-09-04T02:24:28.709Z,9.98
2023-09-04T02:29:32.262Z,9.91
2023-09-04T02:34:35.384Z,9.89
2023-09-04T02:39:40.592Z,9.84
2023-09-04T02:44:43.975Z,9.78
2023-09-04T02:49:47.108Z,9.71
2023-09-04T02:54:51.662Z,9.68
2023-09-04T02:59:54.987Z,9.63
2023-09-04T03:04:58.976Z,9.62
2023-09-04T03:10:03.438Z,9.62
2023-09-04T03:15:08.735Z,9.55
2023-09-04T03:20:20.708Z,9.48
2023-09-04T03:25:27.935Z,9.38
2023-09-04T03:30:32.037Z,9.53
2023-09-04T03:35:35.390Z,9.53
2023-09-04T03:40:40.313Z,9.46
2023-09-04T03:45:43.391Z,9.45
2023-09-04T03:50:46.515Z,9.46
2023-09-04T03:55:52.252Z,9.45
2023-09-04T04:00:58.434Z,9.43
2023-09-04T04:06:12.403Z,9.40
2023-09-04T04:11:16.877Z,9.32
2023-09-04T04:16:19.993Z,9.27
2023-09-04T04:21:23.205Z,9.25
2023-09-04T04:26:27.806Z,9.24
2023-09-04T04:31:31.451Z,9.25
2023-09-04T04:36:34.834Z,9.25
2023-09-04T04:41:39.455Z,9.32
2023-09-04T04:46:42.996Z,9.33
2023-09-04T04:51:46.659Z,9.35
2023-09-04T04:56:51.901Z,9.37
2023-09-04T05:01:57.287Z,9.39
2023-09-04T05:07:00.681Z,9.37
2023-09-04T05:12:05.696Z,9.38
2023-09-04T05:17:09.534Z,9.46
2023-09-04T05:22:13.803Z,9.47
2023-09-04T05:27:18.540Z,9.58
2023-09-04T05:32:21.678Z,9.70
2023-09-04T05:37:25.047Z,9.83
2023-09-04T05:42:29.598Z,9.94
2023-09-04T05:47:32.834Z,9.97
2023-09-04T05:52:36.004Z,10.08
2023-09-04T05:57:40.644Z,10.10
2023-09-04T06:02:43.931Z,10.24
2023-09-04T06:07:47.055Z,10.46
2023-09-04T06:12:53.855Z,10.78
2023-09-04T06:17:57.340Z,10.97
2023-09-04T06:23:00.604Z,11.25
2023-09-04T06:28:06.018Z,11.46
2023-09-04T06:33:10.158Z,11.71
2023-09-04T06:38:15.749Z,12.08
2023-09-04T06:43:20.292Z,12.64
2023-09-04T06:48:24.554Z,13.68
2023-09-04T06:53:28.656Z,14.80
2023-09-04T06:58:33.360Z,15.34
2023-09-04T07:03:36.770Z,15.46
2023-09-04T07:08:40.020Z,16.04
2023-09-04T07:13:44.680Z,16.55
2023-09-04T07:18:47.938Z,17.27
2023-09-04T07:23:51.151Z,17.98
2023-09-04T07:28:56.197Z,17.98
2023-09-04T07:34:00.387Z,18.26
2023-09-04T07:39:03.644Z,18.03
2023-09-04T07:44:08.536Z,18.45
2023-09-04T07:49:11.752Z,18.87
2023-09-04T07:54:15.016Z,18.62
2023-09-04T07:59:19.818Z,19.06
2023-09-04T08:04:23.109Z,19.49
2023-09-04T08:09:26.388Z,19.59
2023-09-04T08:14:37.164Z,19.46
2023-09-04T08:19:40.475Z,19.57
2023-09-04T08:24:43.690Z,19.58
2023-09-04T08:29:48.595Z,19.41
2023-09-04T08:34:52.123Z,19.94
2023-09-04T08:39:55.393Z,20.31
2023-09-04T08:45:00.248Z,20.19
2023-09-04T08:50:04.741Z,20.23
2023-09-04T08:55:08.336Z,20.33
2023-09-04T09:00:14.412Z,20.93
2023-09-04T09:05:19.584Z,20.69
2023-09-04T09:10:23.257Z,20.61
2023-09-04T09:15:28.288Z,20.80
2023-09-04T09:20:32.825Z,21.44
2023-09-04T09:25:37.456Z,21.56
2023-09-04T09:30:42.845Z,22.13
2023-09-04T09:35:46.494Z,22.10
2023-09-04T09:40:49.758Z,22.91
2023-09-04T09:45:54.579Z,22.69
2023-09-04T09:50:57.812Z,22.63
2023-09-04T09:56:01.413Z,22.58
2023-09-04T10:01:06.615Z,22.24
2023-09-04T10:06:11.158Z,22.57
2023-09-04T10:11:16.189Z,23.38
2023-09-04T10:16:29.585Z,22.94
2023-09-04T10:21:35.633Z,23.12
2023-09-04T10:26:44.483Z,23.64
2023-09-04T10:31:50.279Z,23.32
2023-09-04T10:36:53.860Z,23.77
2023-09-04T10:41:59.404Z,24.05
2023-09-04T10:47:04.265Z,23.92
2023-09-04T10:52:07.977Z,24.23
2023-09-04T10:57:14.320Z,23.92
2023-09-04T11:02:30.291Z,24.09
2023-09-04T11:07:35.439Z,24.04
2023-09-04T11:12:39.882Z,24.54
2023-09-04T11:17:47.380Z,24.62
2023-09-04T11:22:50.949Z,24.91
2023-09-04T11:27:54.364Z,24.97
2023-09-04T11:33:01.084Z,24.13
2023-09-04T11:38:24.641Z,24.97
2023-09-04T11:43:29.554Z,25.03
2023-09-04T11:48:34.464Z,25.02
2023-09-04T11:53:38.523Z,25.63
2023-09-04T11:58:42.018Z,25.42
2023-09-04T12:03:47.606Z,25.71
2023-09-04T12:08:51.038Z,26.27
2023-09-04T12:13:54.464Z,25.95
2023-09-04T12:18:59.184Z,26.07
2023-09-04T12:24:02.428Z,25.92
2023-09-04T12:29:05.885Z,25.97
2023-09-04T12:34:10.965Z,26.38
2023-09-04T12:39:14.118Z,26.32
2023-09-04T12:44:17.542Z,26.06
2023-09-04T12:49:24.031Z,26.71
2023-09-04T12:54:27.451Z,26.65
2023-09-04T12:59:30.755Z,25.86
2023-09-04T13:04:35.544Z,26.09
2023-09-04T13:09:39.246Z,26.35
2023-09-04T13:14:42.695Z,26.25
2023-09-04T13:19:47.736Z,26.58
2023-09-04T13:24:51.557Z,26.40
2023-09-04T13:29:55.167Z,26.22
2023-09-04T13:35:00.008Z,26.50
2023-09-04T13:40:04.838Z,26.82
2023-09-04T13:45:08.736Z,26.94
2023-09-04T13:50:13.627Z,26.47
2023-09-04T13:55:17.183Z,26.00
2023-09-04T14:00:21.987Z,25.97
2023-09-04T14:05:30.421Z,26.55
2023-09-04T14:10:34.562Z,25.90
2023-09-04T14:15:39.893Z,26.19
2023-09-04T14:20:45.531Z,26.00
2023-09-04T14:25:53.841Z,26.20
2023-09-04T14:30:57.409Z,26.08
2023-09-04T14:36:02.860Z,26.02
2023-09-04T14:41:14.995Z,26.21
2023-09-04T14:46:20.986Z,26.22
2023-09-04T14:51:25.774Z,26.02
2023-09-04T14:56:29.128Z,26.03
2023-09-04T15:01:32.796Z,25.77
2023-09-04T15:06:39.709Z,26.02
2023-09-04T15:11:43.016Z,25.86
2023-09-04T15:16:46.542Z,26.16
2023-09-04T15:21:51.264Z,25.77
2023-09-04T15:26:54.585Z,25.36
2023-09-04T15:31:57.899Z,24.86
2023-09-04T15:37:02.714Z,25.27
2023-09-04T15:42:07.324Z,25.39
2023-09-04T15:47:10.891Z,24.75
2023-09-04T15:52:15.500Z,24.62
2023-09-04T15:57:18.841Z,24.90
2023-09-04T16:02:22.203Z,24.61
2023-09-04T16:07:27.139Z,24.50
2023-09-04T16:12:30.466Z,24.41
2023-09-04T16:17:33.864Z,23.65
2023-09-04T16:22:38.717Z,23.61
2023-09-04T16:27:41.957Z,23.49
2023-09-04T16:32:45.344Z,22.62
2023-09-04T16:37:49.976Z,22.05
2023-09-04T16:42:53.144Z,22.09
2023-09-04T16:47:56.681Z,21.80
2023-09-04T16:53:01.640Z,21.55
2023-09-04T16:58:05.438Z,21.23
2023-09-04T17:03:08.999Z,20.97
2023-09-04T17:08:13.644Z,20.54
2023-09-04T17:13:17.158Z,20.51
2023-09-04T17:18:20.714Z,19.93
2023-09-04T17:23:25.487Z,20.00
2023-09-04T17:28:28.971Z,19.53
2023-09-04T17:33:32.185Z,19.24
2023-09-04T17:38:37.448Z,18.96
2023-09-04T17:43:41.284Z,19.08
2023-09-04T17:48:44.719Z,19.00
2023-09-04T17:53:49.587Z,18.70
2023-09-04T17:58:53.116Z,18.39
2023-09-04T18:03:56.474Z,17.97
2023-09-04T18:09:01.390Z,17.91
2023-09-04T18:14:04.910Z,17.72
2023-09-04T18:19:08.072Z,17.55
2023-09-04T18:24:13.047Z,17.57
2023-09-04T18:29:16.547Z,17.38
2023-09-04T18:34:20.218Z,16.98
2023-09-04T18:39:24.953Z,17.12
2023-09-04T18:44:28.430Z,17.08
2023-09-04T18:49:32.447Z,16.95
2023-09-04T18:54:37.080Z,16.87
2023-09-04T18:59:40.520Z,16.76
2023-09-04T19:04:44.070Z,16.76
2023-09-04T19:09:52.710Z,16.60
2023-09-04T19:14:56.342Z,16.53
2023-09-04T19:19:59.935Z,16.26
2023-09-04T19:25:05.252Z,16.14
2023-09-04T19:30:11.015Z,16.02
2023-09-04T19:35:14.559Z,16.06
2023-09-04T19:40:19.460Z,15.94
2023-09-04T19:45:23.840Z,15.85
2023-09-04T19:50:27.780Z,15.78
2023-09-04T19:55:33.317Z,15.66
2023-09-04T20:00:36.722Z,15.51
2023-09-04T20:05:39.972Z,15.51
2023-09-04T20:10:44.707Z,15.34
2023-09-04T20:15:48.079Z,15.32
2023-09-04T20:20:52.341Z,15.21
2023-09-04T20:25:57.186Z,15.11
2023-09-04T20:31:00.607Z,14.95
2023-09-04T20:36:04.460Z,14.91
2023-09-04T20:41:08.975Z,14.83
2023-09-04T20:46:12.286Z,14.80
2023-09-04T20:51:15.664Z,14.72
2023-09-04T20:56:20.289Z,14.31
2023-09-04T21:01:23.525Z,14.35
2023-09-04T21:06:27.044Z,14.38
2023-09-04T21:11:30.536Z,14.38
2023-09-04T21:16:51.060Z,14.32
2023-09-04T21:22:11.531Z,14.23
2023-09-04T21:27:33.585Z,14.19
2023-09-04T21:32:54.684Z,14.13
2023-09-04T21:38:15.503Z,14.08
2023-09-04T21:43:37.836Z,14.05
2023-09-04T21:48:58.310Z,13.96
2023-09-04T21:54:19.448Z,13.91
2023-09-04T21:59:41.423Z,13.85
2023-09-04T22:05:02.402Z,13.80
2023-09-04T22:10:23.273Z,13.70
2023-09-04T22:15:45.061Z,13.63
2023-09-04T22:21:05.465Z,13.54
2023-09-04T22:26:26.371Z,13.51
2023-09-04T22:31:48.553Z,13.50
2023-09-04T22:37:09.208Z,13.50
2023-09-04T22:42:29.654Z,13.42
2023-09-04T22:47:51.832Z,13.36
2023-09-04T22:53:12.264Z,13.32
2023-09-04T22:58:32.691Z,13.27
2023-09-04T23:03:56.917Z,13.20
2023-09-04T23:09:17.958Z,13.14
2023-09-04T23:14:38.805Z,13.02
2023-09-04T23:20:01.152Z,12.96
2023-09-04T23:25:05.518Z,12.90
2023-09-04T23:30:10.171Z,12.87
2023-09-04T23:35:29.828Z,12.81
2023-09-04T23:40:50.541Z,12.75
2023-09-04T23:45:53.864Z,12.77
2023-09-04T23:50:58.719Z,12.76
2023-09-04T23:56:06.425Z,12.74
